createdAt,value
2018-02-21T00:01:06.170Z,3.22
2018-02-21T00:03:33.762Z,3.24
2018-02-21T00:06:01.383Z,3.26
2018-02-21T00:08:29.202Z,3.28
2018-02-21T00:10:56.910Z,3.29
2018-02-21T00:13:24.609Z,3.24
2018-02-21T00:15:52.239Z,3.21
2018-02-21T00:18:19.835Z,3.14
2018-02-21T00:20:47.483Z,3.09
2018-02-21T00:23:15.083Z,3.09
2018-02-21T00:25:42.915Z,3.09
2018-02-21T00:28:10.524Z,3.09
2018-02-21T00:30:38.222Z,3.04
2018-02-21T00:33:05.891Z,3.07
2018-02-21T00:35:33.583Z,3.07
2018-02-21T00:38:01.187Z,3.09
2018-02-21T00:40:28.814Z,3.14
2018-02-21T00:42:56.479Z,3.13
2018-02-21T00:45:24.174Z,3.12
2018-02-21T00:47:51.760Z,3.13
2018-02-21T00:50:19.522Z,3.06
2018-02-21T00:52:47.119Z,3.03
2018-02-21T00:55:14.737Z,3.05
2018-02-21T00:57:42.344Z,3.01
2018-02-21T01:00:10.051Z,2.99
2018-02-21T01:02:37.680Z,2.91
2018-02-21T01:05:05.343Z,2.79
2018-02-21T01:07:32.925Z,2.64
2018-02-21T01:10:00.642Z,2.33
2018-02-21T01:12:28.314Z,2.28
2018-02-21T01:14:56.006Z,2.32
2018-02-21T01:17:23.739Z,2.46
2018-02-21T01:19:51.570Z,2.52
2018-02-21T01:22:19.242Z,2.57
2018-02-21T01:24:47.107Z,2.65
2018-02-21T01:27:14.781Z,2.71
2018-02-21T01:29:42.510Z,2.73
2018-02-21T01:32:10.105Z,2.73
2018-02-21T01:34:37.726Z,2.77
2018-02-21T01:37:05.372Z,2.79
2018-02-21T01:39:33.082Z,2.79
2018-02-21T01:42:00.684Z,2.81
2018-02-21T01:44:28.390Z,2.85
2018-02-21T01:46:56.065Z,2.78
2018-02-21T01:49:23.857Z,2.40
2018-02-21T01:51:51.525Z,2.09
2018-02-21T01:54:19.281Z,1.83
2018-02-21T01:56:46.954Z,1.84
2018-02-21T01:59:14.673Z,1.99
2018-02-21T02:01:42.412Z,2.13
2018-02-21T02:04:10.113Z,2.24
2018-02-21T02:06:37.795Z,2.28
2018-02-21T02:09:05.512Z,2.09
2018-02-21T02:11:33.177Z,2.00
2018-02-21T02:14:00.902Z,2.13
2018-02-21T02:16:28.567Z,2.26
2018-02-21T02:18:56.291Z,2.39
2018-02-21T02:21:23.973Z,2.44
2018-02-21T02:23:51.667Z,2.48
2018-02-21T02:26:19.402Z,2.45
2018-02-21T02:28:47.102Z,2.41
2018-02-21T02:31:14.781Z,2.46
2018-02-21T02:33:42.487Z,2.49
2018-02-21T02:36:10.160Z,2.41
2018-02-21T02:52:04.786Z,2.44
2018-02-21T02:54:32.503Z,2.49
2018-02-21T02:57:00.189Z,2.48
2018-02-21T02:59:27.885Z,2.46
2018-02-21T03:01:55.558Z,2.48
2018-02-21T03:04:23.263Z,2.48
2018-02-21T03:06:51.057Z,2.49
2018-02-21T03:09:18.730Z,2.46
2018-02-21T03:11:46.430Z,2.52
2018-02-21T03:14:14.094Z,2.55
2018-02-21T03:16:41.928Z,2.61
2018-02-21T03:19:09.606Z,2.61
2018-02-21T03:21:37.294Z,2.55
2018-02-21T03:24:04.981Z,2.50
2018-02-21T03:26:32.822Z,2.46
2018-02-21T03:29:00.502Z,2.49
2018-02-21T03:31:28.215Z,2.53
2018-02-21T03:33:55.954Z,2.59
2018-02-21T03:36:23.627Z,2.59
2018-02-21T03:38:51.446Z,2.62
2018-02-21T03:41:19.123Z,2.64
2018-02-21T03:43:46.882Z,2.61
2018-02-21T03:46:14.624Z,2.63
2018-02-21T03:48:42.323Z,2.65
2018-02-21T03:51:10.006Z,2.64
2018-02-21T03:53:37.712Z,2.65
2018-02-21T03:56:05.382Z,2.67
2018-02-21T03:58:33.098Z,2.66
2018-02-21T04:01:00.771Z,2.70
2018-02-21T04:03:28.512Z,2.75
2018-02-21T04:05:56.186Z,2.83
2018-02-21T04:08:23.893Z,2.85
2018-02-21T04:10:51.494Z,2.86
2018-02-21T04:13:19.386Z,2.81
2018-02-21T04:15:47.070Z,2.81
2018-02-21T04:18:14.699Z,2.85
2018-02-21T04:20:42.370Z,2.82
2018-02-21T04:23:10.150Z,2.84
2018-02-21T04:25:37.878Z,2.83
2018-02-21T04:28:05.594Z,2.79
2018-02-21T04:30:33.281Z,2.77
2018-02-21T04:33:01.124Z,2.75
2018-02-21T04:35:28.798Z,2.78
2018-02-21T04:37:56.894Z,2.79
2018-02-21T04:40:24.567Z,2.83
2018-02-21T04:42:52.326Z,2.81
2018-02-21T04:45:19.989Z,2.76
2018-02-21T04:47:47.766Z,2.75
2018-02-21T04:50:15.452Z,2.76
2018-02-21T04:52:43.234Z,2.71
2018-02-21T05:08:33.802Z,2.83
2018-02-21T05:11:01.509Z,2.79
2018-02-21T05:13:29.209Z,2.76
2018-02-21T05:15:56.938Z,2.65
2018-02-21T05:18:24.635Z,2.65
2018-02-21T05:20:52.315Z,2.63
2018-02-21T05:23:20.010Z,2.64
2018-02-21T05:25:47.662Z,2.69
2018-02-21T05:28:15.342Z,2.71
2018-02-21T05:30:43.126Z,2.75
2018-02-21T05:33:10.799Z,2.77
2018-02-21T05:35:38.499Z,2.72
2018-02-21T05:38:06.239Z,2.70
2018-02-21T05:40:33.978Z,2.71
2018-02-21T05:43:01.694Z,2.76
2018-02-21T05:45:29.422Z,2.72
2018-02-21T05:47:57.740Z,2.66
2018-02-21T05:50:25.429Z,2.57
2018-02-21T05:52:53.126Z,2.57
2018-02-21T05:55:20.801Z,2.49
2018-02-21T05:57:48.499Z,2.92
2018-02-21T06:00:16.178Z,3.76
2018-02-21T06:02:43.849Z,4.53
2018-02-21T06:05:11.451Z,5.27
2018-02-21T06:07:39.082Z,5.67
2018-02-21T06:10:06.701Z,5.99
2018-02-21T06:12:34.286Z,6.22
2018-02-21T06:15:01.947Z,6.05
2018-02-21T06:17:29.550Z,5.54
2018-02-21T06:19:57.182Z,5.00
2018-02-21T06:22:25.008Z,4.57
2018-02-21T06:24:52.619Z,4.20
2018-02-21T06:27:20.214Z,3.92
2018-02-21T06:29:47.855Z,3.75
2018-02-21T06:32:15.549Z,3.64
2018-02-21T06:34:43.166Z,3.56
2018-02-21T06:37:10.787Z,3.45
2018-02-21T06:39:38.386Z,3.41
2018-02-21T06:42:06.013Z,3.33
2018-02-21T06:44:33.639Z,3.24
2018-02-21T06:47:01.232Z,3.21
2018-02-21T06:49:28.867Z,3.17
2018-02-21T06:51:56.454Z,3.14
2018-02-21T06:54:24.096Z,3.13
2018-02-21T06:56:51.687Z,3.14
2018-02-21T06:59:19.299Z,3.13
2018-02-21T07:01:46.974Z,3.08
2018-02-21T07:04:14.588Z,3.03
2018-02-21T07:06:42.143Z,3.02
2018-02-21T07:09:09.846Z,2.94
2018-02-21T07:11:37.518Z,2.89
2018-02-21T07:14:05.142Z,2.87
2018-02-21T07:16:32.853Z,2.76
2018-02-21T07:19:00.549Z,2.69
2018-02-21T07:21:28.296Z,2.62
2018-02-21T07:23:56.153Z,2.55
2018-02-21T07:26:23.838Z,2.53
2018-02-21T07:28:51.596Z,2.35
2018-02-21T07:31:19.219Z,2.22
2018-02-21T07:33:46.925Z,2.16
2018-02-21T07:36:14.611Z,2.12
2018-02-21T07:38:42.319Z,2.04
2018-02-21T07:41:10.020Z,1.95
2018-02-21T07:43:37.728Z,1.99
2018-02-21T07:46:05.427Z,2.04
2018-02-21T07:48:33.138Z,2.18
2018-02-21T07:51:00.850Z,2.33
2018-02-21T07:53:28.503Z,2.45
2018-02-21T07:55:56.210Z,2.49
2018-02-21T07:58:23.891Z,2.57
2018-02-21T08:00:51.583Z,2.64
2018-02-21T08:03:19.274Z,2.68
2018-02-21T08:05:47.017Z,2.72
2018-02-21T08:08:14.690Z,2.80
2018-02-21T08:10:42.445Z,2.70
2018-02-21T08:13:10.138Z,2.70
2018-02-21T08:15:37.850Z,2.72
2018-02-21T08:18:05.530Z,2.74
2018-02-21T08:20:33.405Z,2.61
2018-02-21T08:23:01.077Z,2.61
2018-02-21T08:25:28.794Z,2.68
2018-02-21T08:27:56.938Z,2.73
2018-02-21T08:30:24.694Z,2.78
2018-02-21T08:32:52.370Z,2.85
2018-02-21T08:35:20.074Z,2.86
2018-02-21T08:37:47.761Z,2.83
2018-02-21T08:40:15.514Z,2.88
2018-02-21T08:42:43.186Z,2.91
2018-02-21T08:45:11.063Z,2.96
2018-02-21T08:47:38.733Z,2.99
2018-02-21T08:50:06.449Z,3.03
2018-02-21T08:52:34.285Z,3.11
2018-02-21T08:55:02.027Z,3.14
2018-02-21T08:57:29.715Z,3.07
2018-02-21T08:59:57.546Z,3.02
2018-02-21T09:02:25.218Z,3.11
2018-02-21T09:04:52.942Z,3.13
2018-02-21T09:07:20.627Z,3.26
2018-02-21T09:09:48.413Z,3.37
2018-02-21T09:12:16.095Z,3.46
2018-02-21T09:14:43.794Z,3.54
2018-02-21T09:17:11.472Z,3.55
2018-02-21T09:19:39.179Z,3.65
2018-02-21T09:22:06.863Z,3.69
2018-02-21T09:24:34.558Z,3.71
2018-02-21T09:27:02.165Z,3.75
2018-02-21T09:29:29.866Z,3.71
2018-02-21T09:31:57.558Z,3.77
2018-02-21T09:34:25.183Z,3.85
2018-02-21T09:36:52.778Z,3.89
2018-02-21T09:39:20.501Z,3.94
2018-02-21T09:41:48.174Z,3.98
2018-02-21T09:44:15.826Z,4.18
2018-02-21T09:46:43.574Z,4.28
2018-02-21T09:49:11.447Z,4.34
2018-02-21T09:51:39.174Z,4.41
2018-02-21T09:54:06.823Z,4.42
2018-02-21T09:56:34.462Z,4.47
2018-02-21T09:59:02.074Z,4.55
2018-02-21T10:01:29.699Z,4.68
2018-02-21T10:03:57.482Z,4.80
2018-02-21T10:06:25.111Z,5.00
2018-02-21T10:08:52.710Z,5.13
2018-02-21T10:11:20.342Z,5.07
2018-02-21T10:13:47.950Z,5.10
2018-02-21T10:16:15.605Z,5.32
2018-02-21T10:18:43.205Z,5.59
2018-02-21T10:21:10.822Z,5.85
2018-02-21T10:23:38.451Z,6.07
2018-02-21T10:26:06.075Z,6.26
2018-02-21T10:28:33.682Z,6.48
2018-02-21T10:31:01.316Z,6.63
2018-02-21T10:33:28.924Z,6.76
2018-02-21T10:35:56.563Z,6.97
2018-02-21T10:38:24.176Z,7.15
2018-02-21T10:40:51.777Z,7.23
2018-02-21T10:43:19.510Z,7.03
2018-02-21T10:45:47.137Z,7.06
2018-02-21T10:48:14.746Z,7.10
2018-02-21T10:50:42.377Z,7.21
2018-02-21T10:53:10.050Z,7.31
2018-02-21T10:55:37.767Z,7.56
2018-02-21T10:58:05.402Z,7.66
2018-02-21T11:00:38.587Z,7.71
2018-02-21T11:03:06.202Z,7.93
2018-02-21T11:05:33.801Z,8.11
2018-02-21T11:08:05.210Z,8.54
2018-02-21T11:10:32.809Z,8.68
2018-02-21T11:13:00.437Z,8.87
2018-02-21T11:15:28.039Z,8.79
2018-02-21T11:17:55.998Z,8.58
2018-02-21T11:20:23.605Z,8.93
2018-02-21T11:22:51.244Z,9.04
2018-02-21T11:25:18.835Z,9.27
2018-02-21T11:27:46.454Z,9.68
2018-02-21T11:30:14.052Z,9.72
2018-02-21T11:32:41.690Z,9.78
2018-02-21T11:35:09.284Z,9.74
2018-02-21T11:37:36.988Z,9.69
2018-02-21T11:40:04.583Z,9.97
2018-02-21T11:42:32.250Z,10.29
2018-02-21T11:44:59.867Z,10.25
2018-02-21T11:47:27.493Z,9.75
2018-02-21T11:49:55.099Z,9.92
2018-02-21T11:52:22.690Z,9.99
2018-02-21T11:54:50.357Z,10.06
2018-02-21T11:57:17.983Z,9.87
2018-02-21T11:59:45.625Z,9.70
2018-02-21T12:02:13.230Z,9.67
2018-02-21T12:04:40.862Z,9.56
2018-02-21T12:07:08.471Z,9.65
2018-02-21T12:09:36.101Z,9.54
2018-02-21T12:12:03.809Z,9.20
2018-02-21T12:14:31.427Z,9.14
2018-02-21T12:16:59.130Z,9.61
2018-02-21T12:19:26.778Z,9.70
2018-02-21T12:21:54.431Z,9.94
2018-02-21T12:24:22.062Z,9.89
2018-02-21T12:26:49.679Z,10.35
2018-02-21T12:29:17.326Z,10.41
2018-02-21T12:31:44.970Z,9.81
2018-02-21T12:34:12.619Z,10.13
2018-02-21T12:36:40.235Z,10.26
2018-02-21T12:52:34.702Z,11.57
2018-02-21T12:55:02.356Z,11.44
2018-02-21T12:57:29.954Z,11.42
2018-02-21T12:59:57.611Z,11.40
2018-02-21T13:02:25.284Z,10.92
2018-02-21T13:04:52.934Z,11.41
2018-02-21T13:07:20.528Z,11.99
2018-02-21T13:09:48.162Z,12.05
2018-02-21T13:12:15.811Z,11.57
2018-02-21T13:14:43.497Z,10.93
2018-02-21T13:17:11.107Z,11.38
2018-02-21T13:19:38.729Z,11.29
2018-02-21T13:22:06.337Z,11.58
2018-02-21T13:24:33.974Z,10.49
2018-02-21T13:27:01.579Z,10.54
2018-02-21T13:29:29.222Z,10.31
2018-02-21T13:31:56.819Z,10.54
2018-02-21T13:34:24.470Z,10.56
2018-02-21T13:36:52.087Z,10.45
2018-02-21T13:39:19.698Z,10.19
2018-02-21T13:41:47.351Z,10.89
2018-02-21T13:44:14.977Z,11.61
2018-02-21T13:46:42.613Z,12.14
2018-02-21T13:49:10.299Z,12.41
2018-02-21T13:51:37.898Z,12.63
2018-02-21T13:54:05.687Z,12.40
2018-02-21T13:56:33.313Z,11.80
2018-02-21T13:59:00.970Z,11.98
2018-02-21T14:01:28.655Z,11.35
2018-02-21T14:03:56.298Z,11.71
2018-02-21T14:06:23.915Z,12.04
2018-02-21T14:08:51.555Z,11.74
2018-02-21T14:11:19.154Z,11.47
2018-02-21T14:13:46.787Z,11.79
2018-02-21T14:16:14.410Z,12.15
2018-02-21T14:18:42.043Z,12.70
2018-02-21T14:21:09.630Z,12.87
2018-02-21T14:23:37.386Z,12.89
2018-02-21T14:26:04.974Z,12.31
2018-02-21T14:28:32.611Z,12.54
2018-02-21T14:31:00.275Z,12.82
2018-02-21T14:33:28.020Z,13.21
2018-02-21T14:35:55.680Z,13.18
2018-02-21T14:38:23.346Z,13.11
2018-02-21T14:40:50.986Z,12.86
2018-02-21T14:43:18.623Z,12.88
2018-02-21T14:45:46.234Z,13.07
2018-02-21T14:48:13.878Z,12.92
2018-02-21T14:50:41.686Z,13.08
2018-02-21T14:53:09.378Z,13.26
2018-02-21T14:55:36.991Z,13.30
2018-02-21T14:58:04.647Z,13.39
2018-02-21T15:00:32.277Z,13.07
2018-02-21T15:02:59.930Z,12.51
2018-02-21T15:05:27.583Z,12.46
2018-02-21T15:07:55.190Z,12.49
2018-02-21T15:10:22.827Z,12.87
2018-02-21T15:12:50.439Z,12.75
2018-02-21T15:15:18.091Z,12.90
2018-02-21T15:17:45.694Z,12.27
2018-02-21T15:20:13.327Z,12.04
2018-02-21T15:22:40.939Z,11.89
2018-02-21T15:25:08.566Z,11.91
2018-02-21T15:27:36.162Z,11.67
2018-02-21T15:30:03.892Z,11.83
2018-02-21T15:32:31.494Z,11.97
2018-02-21T15:34:59.151Z,11.94
2018-02-21T15:37:26.738Z,11.83
2018-02-21T15:39:54.372Z,11.76
2018-02-21T15:42:21.990Z,11.68
2018-02-21T15:44:49.625Z,11.57
2018-02-21T15:47:17.233Z,11.54
2018-02-21T15:49:44.831Z,11.42
2018-02-21T15:52:12.467Z,11.38
2018-02-21T15:54:40.081Z,11.37
2018-02-21T15:57:07.756Z,11.29
2018-02-21T15:59:35.363Z,11.40
2018-02-21T16:02:03.024Z,11.28
2018-02-21T16:04:30.783Z,11.06
2018-02-21T16:06:58.387Z,11.18
2018-02-21T16:09:26.054Z,11.12
2018-02-21T16:11:53.659Z,10.98
2018-02-21T16:14:21.295Z,10.67
2018-02-21T16:16:48.910Z,10.64
2018-02-21T16:19:16.587Z,10.59
2018-02-21T16:21:44.219Z,10.49
2018-02-21T16:24:11.870Z,10.46
2018-02-21T16:26:39.460Z,10.13
2018-02-21T16:29:07.052Z,9.70
2018-02-21T16:31:34.778Z,9.47
2018-02-21T16:34:02.371Z,9.28
2018-02-21T16:36:29.998Z,9.10
2018-02-21T16:38:57.610Z,8.98
2018-02-21T16:41:25.365Z,8.89
2018-02-21T16:43:52.951Z,8.74
2018-02-21T16:46:20.596Z,8.60
2018-02-21T16:48:48.194Z,8.45
2018-02-21T16:51:15.834Z,8.39
2018-02-21T16:53:43.440Z,8.16
2018-02-21T16:56:11.166Z,8.13
2018-02-21T16:58:38.767Z,8.04
2018-02-21T17:01:06.464Z,7.97
2018-02-21T17:03:34.134Z,7.82
2018-02-21T17:06:01.771Z,7.78
2018-02-21T17:08:29.363Z,7.61
2018-02-21T17:10:56.999Z,7.61
2018-02-21T17:13:24.614Z,7.50
2018-02-21T17:15:52.239Z,7.40
2018-02-21T17:18:19.830Z,7.36
2018-02-21T17:20:47.599Z,7.30
2018-02-21T17:23:15.207Z,7.33
2018-02-21T17:25:42.854Z,7.38
2018-02-21T17:28:10.458Z,7.38
2018-02-21T17:30:38.107Z,7.31
2018-02-21T17:33:05.702Z,7.30
2018-02-21T17:35:33.336Z,7.20
2018-02-21T17:38:00.951Z,7.21
2018-02-21T17:40:28.576Z,7.25
2018-02-21T17:42:56.219Z,7.29
2018-02-21T17:45:23.846Z,7.16
2018-02-21T17:47:51.460Z,7.07
2018-02-21T17:50:19.092Z,7.09
2018-02-21T17:52:46.694Z,7.11
2018-02-21T17:55:14.347Z,7.12
2018-02-21T17:57:41.950Z,7.07
2018-02-21T18:00:09.630Z,7.09
2018-02-21T18:02:37.220Z,7.09
2018-02-21T18:05:04.863Z,7.04
2018-02-21T18:07:32.478Z,7.02
2018-02-21T18:10:00.124Z,7.02
2018-02-21T18:12:27.776Z,7.03
2018-02-21T18:14:55.404Z,6.96
2018-02-21T18:17:23.014Z,6.95
2018-02-21T18:19:50.721Z,6.89
2018-02-21T18:22:18.319Z,6.84
2018-02-21T18:24:45.981Z,6.78
2018-02-21T18:27:13.598Z,6.74
2018-02-21T18:29:41.250Z,6.71
2018-02-21T18:32:08.846Z,6.61
2018-02-21T18:34:36.466Z,6.53
2018-02-21T18:37:04.102Z,6.46
2018-02-21T18:39:31.738Z,6.35
2018-02-21T18:41:59.363Z,6.23
2018-02-21T18:44:26.987Z,6.24
2018-02-21T18:46:54.582Z,6.21
2018-02-21T18:49:22.237Z,6.24
2018-02-21T18:51:49.867Z,6.29
2018-02-21T18:54:17.519Z,6.31
2018-02-21T18:56:45.145Z,6.31
2018-02-21T18:59:12.774Z,6.27
2018-02-21T19:01:40.448Z,6.21
2018-02-21T19:04:08.076Z,6.22
2018-02-21T19:06:35.674Z,6.21
2018-02-21T19:09:03.388Z,6.18
2018-02-21T19:11:31.016Z,6.21
2018-02-21T19:13:58.637Z,6.21
2018-02-21T19:16:26.256Z,6.23
2018-02-21T19:18:53.877Z,6.27
2018-02-21T19:21:21.484Z,6.25
2018-02-21T19:23:49.385Z,6.14
2018-02-21T19:26:16.972Z,6.15
2018-02-21T19:28:44.626Z,6.12
2018-02-21T19:31:12.250Z,6.12
2018-02-21T19:33:39.838Z,6.00
2018-02-21T19:36:07.488Z,5.96
2018-02-21T19:38:35.106Z,5.97
2018-02-21T19:41:02.736Z,5.98
2018-02-21T19:43:30.351Z,6.01
2018-02-21T19:45:58.014Z,5.93
2018-02-21T19:48:25.609Z,5.89
2018-02-21T19:50:53.227Z,5.85
2018-02-21T19:53:20.869Z,5.88
2018-02-21T19:55:48.452Z,5.87
2018-02-21T19:58:16.051Z,5.84
2018-02-21T20:00:43.683Z,5.68
2018-02-21T20:03:11.311Z,5.70
2018-02-21T20:05:38.926Z,5.64
2018-02-21T20:08:06.551Z,5.36
2018-02-21T20:10:34.206Z,5.34
2018-02-21T20:13:01.844Z,5.33
2018-02-21T20:15:29.486Z,5.30
2018-02-21T20:17:57.698Z,5.28
2018-02-21T20:20:25.331Z,5.13
2018-02-21T20:22:52.960Z,5.00
2018-02-21T20:25:20.583Z,5.01
2018-02-21T20:27:48.238Z,4.98
2018-02-21T20:30:15.921Z,5.03
2018-02-21T20:32:43.530Z,5.08
2018-02-21T20:35:11.174Z,5.10
2018-02-21T20:37:38.835Z,5.14
2018-02-21T20:40:06.475Z,5.17
2018-02-21T20:42:34.070Z,5.24
2018-02-21T20:45:01.714Z,5.29
2018-02-21T20:47:29.301Z,5.29
2018-02-21T20:49:56.930Z,5.29
2018-02-21T20:52:24.525Z,5.32
2018-02-21T20:54:52.137Z,5.33
2018-02-21T20:57:19.735Z,5.29
2018-02-21T20:59:47.362Z,5.28
2018-02-21T21:02:14.959Z,5.25
2018-02-21T21:04:42.610Z,5.24
2018-02-21T21:07:10.207Z,5.24
2018-02-21T21:09:37.832Z,5.16
2018-02-21T21:12:05.439Z,5.18
2018-02-21T21:14:33.058Z,5.17
2018-02-21T21:17:00.741Z,5.20
2018-02-21T21:19:28.326Z,5.20
2018-02-21T21:21:55.914Z,5.17
2018-02-21T21:24:23.570Z,5.17
2018-02-21T21:26:51.167Z,5.13
2018-02-21T21:29:18.811Z,5.12
2018-02-21T21:31:46.417Z,5.15
2018-02-21T21:34:14.039Z,5.14
2018-02-21T21:36:41.748Z,5.11
2018-02-21T21:39:09.497Z,5.03
2018-02-21T21:41:37.066Z,4.98
2018-02-21T21:44:04.698Z,4.95
2018-02-21T21:46:32.290Z,4.93
2018-02-21T21:48:59.991Z,4.91
2018-02-21T21:51:27.593Z,4.86
2018-02-21T21:53:55.213Z,4.85
2018-02-21T21:56:22.822Z,4.87
2018-02-21T21:58:50.452Z,4.84
2018-02-21T22:01:18.052Z,4.82
2018-02-21T22:03:45.680Z,4.79
2018-02-21T22:06:13.364Z,4.75
2018-02-21T22:08:40.988Z,4.64
2018-02-21T22:11:08.579Z,4.55
2018-02-21T22:13:36.206Z,4.48
2018-02-21T22:16:03.823Z,4.45
2018-02-21T22:18:31.443Z,4.47
2018-02-21T22:20:59.059Z,4.49
2018-02-21T22:23:26.695Z,4.48
2018-02-21T22:25:54.444Z,4.46
2018-02-21T22:28:22.064Z,4.48
2018-02-21T22:30:49.671Z,4.47
2018-02-21T22:33:17.292Z,4.44
2018-02-21T22:35:44.884Z,4.42
2018-02-21T22:38:12.521Z,4.31
2018-02-21T22:40:40.119Z,4.34
2018-02-21T22:43:07.765Z,4.26
2018-02-21T22:45:35.370Z,4.27
2018-02-21T22:48:02.979Z,4.19
2018-02-21T22:50:30.571Z,4.18
2018-02-21T22:52:58.275Z,4.21
2018-02-21T22:55:25.866Z,4.23
2018-02-21T22:57:53.501Z,4.23
2018-02-21T23:00:21.097Z,4.10
2018-02-21T23:02:48.711Z,4.09
2018-02-21T23:05:16.312Z,4.06
2018-02-21T23:07:43.941Z,4.05
2018-02-21T23:10:11.550Z,4.06
2018-02-21T23:12:39.162Z,3.98
2018-02-21T23:15:06.766Z,3.78
2018-02-21T23:17:34.398Z,3.77
2018-02-21T23:20:01.990Z,3.81
2018-02-21T23:22:29.674Z,3.82
2018-02-21T23:24:57.269Z,3.85
2018-02-21T23:27:24.902Z,3.83
2018-02-21T23:29:52.536Z,3.78
2018-02-21T23:32:20.154Z,3.80
2018-02-21T23:34:47.755Z,3.83
2018-02-21T23:37:15.378Z,3.88
2018-02-21T23:39:42.977Z,3.85
2018-02-21T23:42:10.607Z,3.91
2018-02-21T23:44:38.210Z,3.94
2018-02-21T23:47:05.811Z,3.92
2018-02-21T23:49:33.530Z,3.84
2018-02-21T23:52:01.130Z,3.85
2018-02-21T23:54:28.831Z,3.79
2018-02-21T23:56:56.458Z,3.68
2018-02-21T23:59:24.066Z,3.68
